createdAt,value
2023-05-24T00:02:08.899Z,6.63
2023-05-24T00:04:35.790Z,6.15
2023-05-24T00:07:03.676Z,8.23
2023-05-24T00:09:31.440Z,7.90
2023-05-24T00:11:58.325Z,5.07
2023-05-24T00:14:25.900Z,13.65
2023-05-24T00:16:53.019Z,8.70
2023-05-24T00:19:22.467Z,7.07
2023-05-24T00:21:49.677Z,7.72
2023-05-24T00:24:17.417Z,5.72
2023-05-24T00:26:44.957Z,5.32
2023-05-24T00:29:12.391Z,6.45
2023-05-24T00:31:39.124Z,5.00
2023-05-24T00:34:06.588Z,7.40
2023-05-24T00:36:34.047Z,6.97
2023-05-24T00:39:00.974Z,9.82
2023-05-24T00:41:27.594Z,6.38
2023-05-24T00:43:55.584Z,6.95
2023-05-24T00:46:32.090Z,8.75
2023-05-24T00:49:00.474Z,5.60
2023-05-24T00:51:28.094Z,5.63
2023-05-24T00:53:55.665Z,6.72
2023-05-24T00:56:23.140Z,5.30
2023-05-24T00:58:54.683Z,7.65
2023-05-24T01:01:25.991Z,6.85
2023-05-24T01:03:57.504Z,6.18
2023-05-24T01:06:27.253Z,6.95
2023-05-24T01:09:10.247Z,6.72
2023-05-24T01:12:00.045Z,7.40
2023-05-24T01:14:33.964Z,6.40
2023-05-24T01:17:04.229Z,6.03
2023-05-24T01:19:33.564Z,7.15
2023-05-24T01:22:14.278Z,7.32
2023-05-24T01:24:56.570Z,9.45
2023-05-24T01:27:24.211Z,9.50
2023-05-24T01:29:53.621Z,6.90
2023-05-24T01:32:20.776Z,7.15
2023-05-24T01:34:47.690Z,7.47
2023-05-24T01:37:14.513Z,9.52
2023-05-24T01:39:42.914Z,8.80
2023-05-24T01:42:26.956Z,10.35
2023-05-24T01:44:57.316Z,7.63
2023-05-24T01:47:36.095Z,10.05
2023-05-24T01:50:20.848Z,9.32
2023-05-24T01:52:50.806Z,8.63
2023-05-24T01:55:18.848Z,12.18
2023-05-24T01:57:49.341Z,13.07
2023-05-24T02:00:18.585Z,8.68
2023-05-24T02:02:46.190Z,7.97
2023-05-24T02:05:13.370Z,7.07
2023-05-24T02:07:41.605Z,7.65
2023-05-24T02:10:09.295Z,9.65
2023-05-24T02:12:36.180Z,9.35
2023-05-24T02:15:03.045Z,7.90
2023-05-24T02:17:33.070Z,7.55
2023-05-24T02:20:00.375Z,6.88
2023-05-24T02:22:27.607Z,11.48
2023-05-24T02:24:54.824Z,7.60
2023-05-24T02:27:21.710Z,7.20
2023-05-24T02:29:48.476Z,7.13
2023-05-24T02:32:15.104Z,9.32
2023-05-24T02:34:42.801Z,7.53
2023-05-24T02:37:09.518Z,9.18
2023-05-24T02:39:36.151Z,7.55
2023-05-24T02:42:04.854Z,11.32
2023-05-24T02:44:31.573Z,10.57
2023-05-24T02:46:58.713Z,10.05
2023-05-24T02:49:25.384Z,7.70
2023-05-24T02:51:53.008Z,8.63
2023-05-24T02:54:20.403Z,10.63
2023-05-24T02:56:48.077Z,7.90
2023-05-24T02:59:15.068Z,11.05
2023-05-24T03:01:41.924Z,7.93
2023-05-24T03:04:08.796Z,8.60
2023-05-24T03:06:36.247Z,10.55
2023-05-24T03:09:02.841Z,10.77
2023-05-24T03:11:29.474Z,8.40
2023-05-24T03:13:56.219Z,9.98
2023-05-24T03:16:23.420Z,7.32
2023-05-24T03:18:51.110Z,7.45
2023-05-24T03:21:21.008Z,6.50
2023-05-24T03:23:48.117Z,9.88
2023-05-24T03:26:14.924Z,5.18
2023-05-24T03:28:42.349Z,7.97
2023-05-24T03:31:09.217Z,6.60
2023-05-24T03:33:36.415Z,5.40
2023-05-24T03:36:04.330Z,8.60
2023-05-24T03:38:31.932Z,12.25
2023-05-24T03:40:59.322Z,13.90
2023-05-24T03:43:26.449Z,20.13
2023-05-24T03:45:54.092Z,15.40
2023-05-24T03:48:21.169Z,6.32
2023-05-24T03:50:48.346Z,9.55
2023-05-24T03:53:15.460Z,16.08
2023-05-24T03:55:42.289Z,11.07
2023-05-24T03:58:09.278Z,9.02
2023-05-24T04:00:36.265Z,7.88
2023-05-24T04:03:03.402Z,5.93
2023-05-24T04:05:30.105Z,7.10
2023-05-24T04:07:57.001Z,4.90
2023-05-24T04:10:23.769Z,12.73
2023-05-24T04:12:50.591Z,15.98
2023-05-24T04:15:17.556Z,9.38
2023-05-24T04:17:45.785Z,6.00
2023-05-24T04:20:13.137Z,8.73
2023-05-24T04:22:39.890Z,8.95
2023-05-24T04:25:07.840Z,7.53
2023-05-24T04:27:36.410Z,6.35
2023-05-24T04:30:03.453Z,12.65
2023-05-24T04:32:30.513Z,12.07
2023-05-24T04:34:57.550Z,5.10
2023-05-24T04:37:24.816Z,7.55
2023-05-24T04:39:51.878Z,7.90
2023-05-24T04:42:18.911Z,4.80
2023-05-24T04:44:45.602Z,13.73
2023-05-24T04:47:13.040Z,6.85
2023-05-24T04:49:40.043Z,9.73
2023-05-24T04:52:07.479Z,12.27
2023-05-24T04:54:34.755Z,6.93
2023-05-24T04:57:01.624Z,5.20
2023-05-24T04:59:28.236Z,7.55
2023-05-24T05:01:54.936Z,9.38
2023-05-24T05:04:21.691Z,7.05
2023-05-24T05:06:48.716Z,5.55
2023-05-24T05:09:16.075Z,5.05
2023-05-24T05:11:43.482Z,5.25
2023-05-24T05:14:10.569Z,6.88
2023-05-24T05:16:38.010Z,6.07
2023-05-24T05:19:05.890Z,5.88
2023-05-24T05:21:33.292Z,4.68
2023-05-24T05:24:01.621Z,5.90
2023-05-24T05:26:28.846Z,4.97
2023-05-24T05:28:56.083Z,4.75
2023-05-24T05:31:23.074Z,6.88
2023-05-24T05:33:50.102Z,8.60
2023-05-24T05:36:17.012Z,11.38
2023-05-24T05:38:43.933Z,7.18
2023-05-24T05:41:10.949Z,7.55
2023-05-24T05:43:39.641Z,7.32
2023-05-24T05:46:07.063Z,8.32
2023-05-24T05:48:34.115Z,8.57
2023-05-24T05:51:01.138Z,7.22
2023-05-24T05:53:27.868Z,13.02
2023-05-24T05:55:54.949Z,7.03
2023-05-24T05:58:21.719Z,4.40
2023-05-24T06:00:48.572Z,11.35
2023-05-24T06:03:15.460Z,5.50
2023-05-24T06:05:43.784Z,7.15
2023-05-24T06:08:10.513Z,6.18
2023-05-24T06:10:38.779Z,7.68
2023-05-24T06:13:05.537Z,11.68
2023-05-24T06:15:33.392Z,6.95
2023-05-24T06:18:02.243Z,6.60
2023-05-24T06:20:29.290Z,4.63
2023-05-24T06:22:57.479Z,7.43
2023-05-24T06:25:24.840Z,7.53
2023-05-24T06:27:51.935Z,8.57
2023-05-24T06:30:19.023Z,6.93
2023-05-24T06:32:46.101Z,8.15
2023-05-24T06:35:13.312Z,10.75
2023-05-24T06:37:40.002Z,7.28
2023-05-24T06:40:09.414Z,9.75
2023-05-24T06:42:37.172Z,5.70
2023-05-24T06:45:04.627Z,9.32
2023-05-24T06:47:31.869Z,5.28
2023-05-24T06:49:59.174Z,5.47
2023-05-24T06:52:25.983Z,7.15
2023-05-24T06:54:52.971Z,6.75
2023-05-24T06:57:19.685Z,6.32
2023-05-24T06:59:46.885Z,4.93
2023-05-24T07:02:13.694Z,4.40
2023-05-24T07:04:43.402Z,4.28
2023-05-24T07:07:13.302Z,6.47
2023-05-24T07:09:42.312Z,7.07
2023-05-24T07:12:09.408Z,4.60
2023-05-24T07:14:36.518Z,5.75
2023-05-24T07:17:03.448Z,14.15
2023-05-24T07:19:30.482Z,8.90
2023-05-24T07:21:57.216Z,6.57
2023-05-24T07:24:24.310Z,7.47
2023-05-24T07:26:52.204Z,11.20
2023-05-24T07:29:18.957Z,5.10
2023-05-24T07:31:45.889Z,6.75
2023-05-24T07:34:12.586Z,11.98
2023-05-24T07:36:41.047Z,8.52
2023-05-24T07:39:10.688Z,6.88
2023-05-24T07:41:37.390Z,10.43
2023-05-24T07:44:04.701Z,6.93
2023-05-24T07:46:32.706Z,9.45
2023-05-24T07:48:59.518Z,8.88
2023-05-24T07:51:26.767Z,12.20
2023-05-24T07:53:53.607Z,6.20
2023-05-24T07:56:20.314Z,5.82
2023-05-24T07:58:47.628Z,3.63
2023-05-24T08:01:14.570Z,4.22
2023-05-24T08:03:41.442Z,1.50
2023-05-24T08:06:08.758Z,2.30
2023-05-24T08:08:36.342Z,3.80
2023-05-24T08:11:03.187Z,2.85
2023-05-24T08:13:30.027Z,3.17
2023-05-24T08:15:58.568Z,3.55
2023-05-24T08:18:25.293Z,5.55
2023-05-24T08:20:52.197Z,8.27
2023-05-24T08:23:19.216Z,3.40
2023-05-24T08:25:46.157Z,1.30
2023-05-24T08:28:13.159Z,3.83
2023-05-24T08:30:40.149Z,1.10
2023-05-24T08:33:07.077Z,2.13
2023-05-24T08:35:33.922Z,6.22
2023-05-24T08:38:01.011Z,6.10
2023-05-24T08:40:27.949Z,2.05
2023-05-24T08:42:59.622Z,2.03
2023-05-24T08:45:29.408Z,2.10
2023-05-24T08:47:58.532Z,2.60
2023-05-24T08:50:25.497Z,3.38
2023-05-24T08:52:53.079Z,3.90
2023-05-24T08:55:20.413Z,1.20
2023-05-24T08:57:47.876Z,2.55
2023-05-24T09:00:15.598Z,2.75
2023-05-24T09:02:43.739Z,4.00
2023-05-24T09:05:12.547Z,2.60
2023-05-24T09:07:41.140Z,2.47
2023-05-24T09:10:09.677Z,2.20
2023-05-24T09:12:44.269Z,3.58
2023-05-24T09:15:11.644Z,2.53
2023-05-24T09:17:39.192Z,3.00
2023-05-24T09:20:11.063Z,1.83
2023-05-24T09:22:41.014Z,2.40
2023-05-24T09:25:10.215Z,2.60
2023-05-24T09:27:37.900Z,1.75
2023-05-24T09:30:09.148Z,2.75
2023-05-24T09:32:35.943Z,1.52
2023-05-24T09:35:02.768Z,0.70
2023-05-24T09:37:32.675Z,0.75
2023-05-24T09:40:01.873Z,1.52
2023-05-24T09:42:29.563Z,0.65
2023-05-24T09:45:12.761Z,0.70
2023-05-24T09:47:41.590Z,2.20
2023-05-24T09:50:17.627Z,2.00
2023-05-24T09:52:45.295Z,2.58
2023-05-24T09:55:18.254Z,1.85
2023-05-24T09:57:49.976Z,0.75
2023-05-24T10:00:22.674Z,4.10
2023-05-24T10:03:08.190Z,1.95
2023-05-24T10:05:36.011Z,2.38
2023-05-24T10:08:05.399Z,0.50
2023-05-24T10:10:33.968Z,1.20
2023-05-24T10:13:01.880Z,2.88
2023-05-24T10:15:30.197Z,2.38
2023-05-24T10:17:58.474Z,0.60
2023-05-24T10:20:25.549Z,0.75
2023-05-24T10:22:55.998Z,1.25
2023-05-24T10:25:28.602Z,1.25
2023-05-24T10:28:03.717Z,0.82
2023-05-24T10:30:37.725Z,1.00
2023-05-24T10:33:08.349Z,1.95
2023-05-24T10:35:38.383Z,2.35
2023-05-24T10:38:09.612Z,4.57
2023-05-24T10:40:42.182Z,1.40
2023-05-24T10:43:09.689Z,2.85
2023-05-24T10:45:41.945Z,2.50
2023-05-24T10:48:28.964Z,3.25
2023-05-24T10:50:56.199Z,0.55
2023-05-24T10:53:26.347Z,2.35
2023-05-24T10:55:57.417Z,3.67
2023-05-24T10:59:06.426Z,1.00
2023-05-24T11:01:33.914Z,1.48
2023-05-24T11:04:17.186Z,0.77
2023-05-24T11:07:05.355Z,2.47
2023-05-24T11:09:33.581Z,1.48
2023-05-24T11:12:04.248Z,0.63
2023-05-24T11:14:32.540Z,0.77
2023-05-24T11:17:03.179Z,1.08
2023-05-24T11:19:35.493Z,1.02
2023-05-24T11:22:06.264Z,1.73
2023-05-24T11:24:33.835Z,2.58
2023-05-24T11:27:02.690Z,2.03
2023-05-24T11:29:30.792Z,0.52
2023-05-24T11:32:07.951Z,0.68
2023-05-24T11:34:35.303Z,1.42
2023-05-24T11:37:03.220Z,0.65
2023-05-24T11:39:33.967Z,2.53
2023-05-24T11:42:02.520Z,3.13
2023-05-24T11:44:32.026Z,1.30
2023-05-24T11:47:03.465Z,0.50
2023-05-24T11:49:30.287Z,1.15
2023-05-24T11:51:58.651Z,0.90
2023-05-24T11:54:27.979Z,0.70
2023-05-24T11:56:55.827Z,1.02
2023-05-24T11:59:25.648Z,0.60
2023-05-24T12:02:00.494Z,1.13
2023-05-24T12:04:29.520Z,1.90
2023-05-24T12:06:56.753Z,2.47
2023-05-24T12:09:24.270Z,2.38
2023-05-24T12:11:52.128Z,2.90
2023-05-24T12:14:23.072Z,1.50
2023-05-24T12:16:50.278Z,1.75
2023-05-24T12:19:32.529Z,1.50
2023-05-24T12:22:08.383Z,0.47
2023-05-24T12:24:35.531Z,0.80
2023-05-24T12:27:06.946Z,0.50
2023-05-24T12:29:40.757Z,0.88
2023-05-24T12:32:13.614Z,2.03
2023-05-24T12:34:42.706Z,0.90
2023-05-24T12:37:10.316Z,2.15
2023-05-24T12:39:37.579Z,1.52
2023-05-24T12:42:05.252Z,0.60
2023-05-24T12:44:35.612Z,1.02
2023-05-24T12:47:04.753Z,2.38
2023-05-24T12:49:32.293Z,1.45
2023-05-24T12:51:59.536Z,3.33
2023-05-24T12:54:27.961Z,0.68
2023-05-24T12:56:56.922Z,1.08
2023-05-24T12:59:24.267Z,1.30
2023-05-24T13:01:52.211Z,1.30
2023-05-24T13:04:21.846Z,1.10
2023-05-24T13:06:48.906Z,1.27
2023-05-24T13:09:18.380Z,1.48
2023-05-24T13:11:45.702Z,2.05
2023-05-24T13:14:12.808Z,0.68
2023-05-24T13:16:39.900Z,0.50
2023-05-24T13:19:06.971Z,1.30
2023-05-24T13:21:33.930Z,0.93
2023-05-24T13:24:00.736Z,1.05
2023-05-24T13:26:28.637Z,1.55
2023-05-24T13:31:25.552Z,1.98
2023-05-24T13:33:52.454Z,2.75
2023-05-24T13:36:19.177Z,1.92
2023-05-24T13:38:46.355Z,3.40
2023-05-24T13:41:13.585Z,2.42
2023-05-24T13:43:41.129Z,1.55
2023-05-24T13:46:09.496Z,2.42
2023-05-24T13:48:37.490Z,1.45
2023-05-24T13:51:04.305Z,2.92
2023-05-24T13:53:31.210Z,2.67
2023-05-24T13:55:58.159Z,3.42
2023-05-24T13:58:24.829Z,2.03
2023-05-24T14:00:51.490Z,1.77
2023-05-24T14:03:18.307Z,0.80
2023-05-24T14:05:45.413Z,1.77
2023-05-24T14:08:12.516Z,1.23
2023-05-24T14:10:39.290Z,2.95
2023-05-24T14:15:36.586Z,2.95
2023-05-24T14:18:08.248Z,1.75
2023-05-24T14:20:40.404Z,1.73
2023-05-24T14:23:08.421Z,1.85
2023-05-24T14:25:35.418Z,4.57
2023-05-24T14:28:03.793Z,3.88
2023-05-24T14:30:33.703Z,5.28
2023-05-24T14:33:03.246Z,5.97
2023-05-24T14:35:30.366Z,10.85
2023-05-24T14:37:57.315Z,4.07
2023-05-24T14:40:24.165Z,4.28
2023-05-24T14:42:51.030Z,1.65
2023-05-24T14:45:17.763Z,1.50
2023-05-24T14:47:44.511Z,3.50
2023-05-24T14:50:13.472Z,1.92
2023-05-24T14:52:40.326Z,3.38
2023-05-24T14:55:07.412Z,2.35
2023-05-24T14:57:34.070Z,3.33
2023-05-24T15:00:01.116Z,1.10
2023-05-24T15:02:27.834Z,4.45
2023-05-24T15:04:54.893Z,2.20
2023-05-24T15:07:23.090Z,1.48
2023-05-24T15:09:50.091Z,0.70
2023-05-24T15:12:17.281Z,1.55
2023-05-24T15:14:43.990Z,0.70
2023-05-24T15:17:11.511Z,0.70
2023-05-24T15:19:38.637Z,0.73
2023-05-24T15:22:05.738Z,1.05
2023-05-24T15:24:32.771Z,0.70
2023-05-24T15:26:59.529Z,0.77
2023-05-24T15:29:26.355Z,0.60
2023-05-24T15:31:53.313Z,0.73
2023-05-24T15:34:21.500Z,0.32
2023-05-24T15:36:50.446Z,3.40
2023-05-24T15:39:18.156Z,1.58
2023-05-24T15:41:44.989Z,2.97
2023-05-24T15:44:12.522Z,1.40
2023-05-24T15:46:41.131Z,0.90
2023-05-24T15:49:07.995Z,1.90
2023-05-24T15:52:03.092Z,0.63
2023-05-24T15:54:21.769Z,1.75
2023-05-24T15:56:49.987Z,0.50
2023-05-24T15:59:16.648Z,1.55
2023-05-24T16:01:43.363Z,2.97
2023-05-24T16:04:10.167Z,0.65
2023-05-24T16:06:37.075Z,1.20
2023-05-24T16:09:05.443Z,2.45
2023-05-24T16:11:32.599Z,0.90
2023-05-24T16:13:59.350Z,2.53
2023-05-24T16:16:26.473Z,2.28
2023-05-24T16:18:53.238Z,1.67
2023-05-24T16:21:19.867Z,2.67
2023-05-24T16:23:46.633Z,1.15
2023-05-24T16:26:13.975Z,1.58
2023-05-24T16:28:40.634Z,1.60
2023-05-24T16:31:07.363Z,4.75
2023-05-24T16:33:34.051Z,2.25
2023-05-24T16:36:03.410Z,3.47
2023-05-24T16:38:30.373Z,1.02
2023-05-24T16:40:57.100Z,1.40
2023-05-24T16:43:24.003Z,0.85
2023-05-24T16:45:51.784Z,1.77
2023-05-24T16:48:21.469Z,2.63
2023-05-24T16:50:48.459Z,1.00
2023-05-24T16:53:15.113Z,1.85
2023-05-24T16:55:41.760Z,1.73
2023-05-24T16:58:09.595Z,1.17
2023-05-24T17:00:36.278Z,3.63
2023-05-24T17:03:03.217Z,0.90
2023-05-24T17:05:29.902Z,2.00
2023-05-24T17:07:56.595Z,1.40
2023-05-24T17:10:23.264Z,0.93
2023-05-24T17:12:50.178Z,3.15
2023-05-24T17:15:17.110Z,1.40
2023-05-24T17:17:44.112Z,4.07
2023-05-24T17:20:11.349Z,2.78
2023-05-24T17:22:38.041Z,2.60
2023-05-24T17:25:05.457Z,2.50
2023-05-24T17:27:32.185Z,7.07
2023-05-24T17:29:58.931Z,1.88
2023-05-24T17:32:25.871Z,3.17
2023-05-24T17:34:52.795Z,2.00
2023-05-24T17:37:19.941Z,1.65
2023-05-24T17:39:46.798Z,1.58
2023-05-24T17:42:13.484Z,1.88
2023-05-24T17:44:40.309Z,5.45
2023-05-24T17:47:07.463Z,2.33
2023-05-24T17:49:34.350Z,1.83
2023-05-24T17:52:01.235Z,3.22
2023-05-24T17:54:28.299Z,3.53
2023-05-24T17:56:54.997Z,3.83
2023-05-24T17:59:21.741Z,3.97
2023-05-24T18:01:49.017Z,7.00
2023-05-24T18:04:16.086Z,7.25
2023-05-24T18:06:42.692Z,2.15
2023-05-24T18:09:09.960Z,2.15
2023-05-24T18:11:37.043Z,3.95
2023-05-24T18:14:04.790Z,7.03
2023-05-24T18:16:31.844Z,6.45
2023-05-24T18:18:58.542Z,4.88
2023-05-24T18:21:25.323Z,5.30
2023-05-24T18:23:53.239Z,3.67
2023-05-24T18:26:19.926Z,3.97
2023-05-24T18:28:47.040Z,8.13
2023-05-24T18:31:14.988Z,3.72
2023-05-24T18:33:42.341Z,6.75
2023-05-24T18:36:09.581Z,2.42
2023-05-24T18:38:36.970Z,2.25
2023-05-24T18:41:06.394Z,2.85
2023-05-24T18:43:33.641Z,4.90
2023-05-24T18:46:01.208Z,4.88
2023-05-24T18:48:27.933Z,2.75
2023-05-24T18:50:54.975Z,4.65
2023-05-24T18:53:21.750Z,4.60
2023-05-24T18:55:48.681Z,5.50
2023-05-24T18:58:15.341Z,8.35
2023-05-24T19:00:42.020Z,3.65
2023-05-24T19:03:11.297Z,5.90
2023-05-24T19:05:40.099Z,4.03
2023-05-24T19:08:08.468Z,4.93
2023-05-24T19:10:35.096Z,3.58
2023-05-24T19:13:01.831Z,5.20
2023-05-24T19:15:28.877Z,6.78
2023-05-24T19:17:57.905Z,4.32
2023-05-24T19:20:25.402Z,5.50
2023-05-24T19:22:52.098Z,7.38
2023-05-24T19:25:21.363Z,11.68
2023-05-24T19:27:59.090Z,9.90
2023-05-24T19:30:26.412Z,5.88
2023-05-24T19:32:53.164Z,7.47
2023-05-24T19:35:19.930Z,5.00
2023-05-24T19:37:46.602Z,12.02
2023-05-24T19:40:13.375Z,8.13
2023-05-24T19:42:40.080Z,9.65
2023-05-24T19:45:07.664Z,11.35
2023-05-24T19:47:34.444Z,5.85
2023-05-24T19:50:01.523Z,13.45
2023-05-24T19:52:28.068Z,15.70
2023-05-24T19:54:54.904Z,12.82
2023-05-24T19:57:21.550Z,17.77
2023-05-24T19:59:48.541Z,7.78
2023-05-24T20:02:15.538Z,6.43
2023-05-24T20:04:43.983Z,3.67
2023-05-24T20:07:11.499Z,3.42
2023-05-24T20:09:38.453Z,4.35
2023-05-24T20:12:05.269Z,4.43
2023-05-24T20:14:32.059Z,4.10
2023-05-24T20:16:59.279Z,3.33
2023-05-24T20:19:27.229Z,7.90
2023-05-24T20:21:54.434Z,8.27
2023-05-24T20:24:21.208Z,5.80
2023-05-24T20:26:48.365Z,7.88
2023-05-24T20:29:15.249Z,10.50
2023-05-24T20:31:42.657Z,11.63
2023-05-24T20:34:09.335Z,9.02
2023-05-24T20:36:36.976Z,7.90
2023-05-24T20:39:03.973Z,9.65
2023-05-24T20:41:30.787Z,3.60
2023-05-24T20:43:57.485Z,3.75
2023-05-24T20:46:24.642Z,5.07
2023-05-24T20:48:52.101Z,5.57
2023-05-24T20:51:19.932Z,6.03
2023-05-24T20:53:46.911Z,5.47
2023-05-24T20:56:13.610Z,4.68
2023-05-24T20:58:41.496Z,5.25
2023-05-24T21:01:08.722Z,5.72
2023-05-24T21:03:35.910Z,6.03
2023-05-24T21:06:03.004Z,4.85
2023-05-24T21:08:29.636Z,4.60
2023-05-24T21:10:56.895Z,4.03
2023-05-24T21:13:25.612Z,3.15
2023-05-24T21:15:52.327Z,3.10
2023-05-24T21:18:18.999Z,3.30
2023-05-24T21:20:45.686Z,3.10
2023-05-24T21:23:12.408Z,2.17
2023-05-24T21:25:39.168Z,4.13
2023-05-24T21:28:06.123Z,4.53
2023-05-24T21:30:32.776Z,2.97
2023-05-24T21:32:59.671Z,1.90
2023-05-24T21:35:26.670Z,1.88
2023-05-24T21:37:53.631Z,3.42
2023-05-24T21:40:20.394Z,1.52
2023-05-24T21:42:47.163Z,1.70
2023-05-24T21:45:14.308Z,1.60
2023-05-24T21:47:41.626Z,4.65
2023-05-24T21:50:08.783Z,1.73
2023-05-24T21:52:35.390Z,2.25
2023-05-24T21:55:02.510Z,1.88
2023-05-24T21:57:29.212Z,1.60
2023-05-24T21:59:56.161Z,2.88
2023-05-24T22:02:22.862Z,2.00
2023-05-24T22:04:49.850Z,2.28
2023-05-24T22:07:16.481Z,2.50
2023-05-24T22:09:43.138Z,2.38
2023-05-24T22:12:09.832Z,3.15
2023-05-24T22:14:36.604Z,4.63
2023-05-24T22:17:03.666Z,2.67
2023-05-24T22:19:39.409Z,2.00
2023-05-24T22:22:08.295Z,2.45
2023-05-24T22:24:34.954Z,3.10
2023-05-24T22:27:02.582Z,3.00
2023-05-24T22:29:29.321Z,6.57
2023-05-24T22:31:56.163Z,3.50
2023-05-24T22:34:27.451Z,3.08
2023-05-24T22:36:54.647Z,2.83
2023-05-24T22:39:21.882Z,3.38
2023-05-24T22:41:48.583Z,2.97
2023-05-24T22:44:15.931Z,3.55
2023-05-24T22:46:42.874Z,2.75
2023-05-24T22:49:13.287Z,6.50
2023-05-24T22:51:44.430Z,4.25
2023-05-24T22:54:11.866Z,3.17
2023-05-24T22:56:39.160Z,7.95
2023-05-24T22:59:06.721Z,4.97
2023-05-24T23:01:33.861Z,5.22
2023-05-24T23:04:15.880Z,5.13
2023-05-24T23:06:46.461Z,5.80
2023-05-24T23:09:13.408Z,5.43
2023-05-24T23:11:40.483Z,8.18
2023-05-24T23:14:09.248Z,8.88
2023-05-24T23:16:45.531Z,7.57
2023-05-24T23:19:18.610Z,6.78
2023-05-24T23:21:45.674Z,5.97
2023-05-24T23:24:14.712Z,6.57
2023-05-24T23:26:41.997Z,8.05
2023-05-24T23:29:09.692Z,6.05
2023-05-24T23:31:36.614Z,6.07
2023-05-24T23:34:04.102Z,6.25
2023-05-24T23:36:30.912Z,6.68
2023-05-24T23:38:57.690Z,5.88
2023-05-24T23:41:24.444Z,7.10
2023-05-24T23:43:52.436Z,7.72
2023-05-24T23:46:20.233Z,11.02
2023-05-24T23:48:47.131Z,7.47
2023-05-24T23:51:14.211Z,7.90
2023-05-24T23:53:41.003Z,8.48
2023-05-24T23:56:07.717Z,10.15
2023-05-24T23:58:34.567Z,7.90
